sensor_id;sensor_type;location;lat;lon;timestamp;pressure;altitude;pressure_sealevel;temperature;humidity
10366;BME280;5229;41.820;23.490;2022-08-21T00:01:14;89618.88;;;18.90;68.92
10366;BME280;5229;41.820;23.490;2022-08-21T00:03:42;89619.66;;;18.94;68.66
10366;BME280;5229;41.820;23.490;2022-08-21T00:06:09;89621.97;;;18.99;68.59
10366;BME280;5229;41.820;23.490;2022-08-21T00:08:36;89631.38;;;19.03;68.83
10366;BME280;5229;41.820;23.490;2022-08-21T00:11:05;89628.81;;;19.10;68.90
10366;BME280;5229;41.820;23.490;2022-08-21T00:13:32;89634.44;;;19.09;68.51
10366;BME280;5229;41.820;23.490;2022-08-21T00:16:00;89621.63;;;19.04;68.60
10366;BME280;5229;41.820;23.490;2022-08-21T00:18:27;89627.94;;;18.99;69.08
10366;BME280;5229;41.820;23.490;2022-08-21T00:20:54;89628.34;;;18.98;69.57
10366;BME280;5229;41.820;23.490;2022-08-21T00:23:21;89625.38;;;19.03;69.71
10366;BME280;5229;41.820;23.490;2022-08-21T00:25:48;89647.22;;;19.10;70.08
10366;BME280;5229;41.820;23.490;2022-08-21T00:28:16;89637.13;;;19.16;70.26
10366;BME280;5229;41.820;23.490;2022-08-21T00:30:45;89640.13;;;19.18;69.98
10366;BME280;5229;41.820;23.490;2022-08-21T00:33:12;89643.91;;;19.20;70.03
10366;BME280;5229;41.820;23.490;2022-08-21T00:35:41;89627.03;;;19.21;70.24
10366;BME280;5229;41.820;23.490;2022-08-21T00:41:30;89614.97;;;19.17;70.29
10366;BME280;5229;41.820;23.490;2022-08-21T00:47:20;89624.09;;;19.26;70.33
10366;BME280;5229;41.820;23.490;2022-08-21T00:49:47;89624.13;;;19.30;70.32
10366;BME280;5229;41.820;23.490;2022-08-21T00:52:17;89633.53;;;19.34;70.34
10366;BME280;5229;41.820;23.490;2022-08-21T00:54:47;89645.97;;;19.37;70.23
10366;BME280;5229;41.820;23.490;2022-08-21T00:57:20;89665.91;;;19.42;70.18
10366;BME280;5229;41.820;23.490;2022-08-21T00:59:51;89660.31;;;19.47;70.46
10366;BME280;5229;41.820;23.490;2022-08-21T01:02:21;89655.84;;;19.51;70.06
10366;BME280;5229;41.820;23.490;2022-08-21T01:04:48;89654.00;;;19.55;69.87
10366;BME280;5229;41.820;23.490;2022-08-21T01:07:16;89660.75;;;19.56;70.09
10366;BME280;5229;41.820;23.490;2022-08-21T01:09:43;89664.16;;;19.60;70.17
10366;BME280;5229;41.820;23.490;2022-08-21T01:12:12;89659.69;;;19.64;69.95
10366;BME280;5229;41.820;23.490;2022-08-21T01:14:40;89655.94;;;19.65;69.78
10366;BME280;5229;41.820;23.490;2022-08-21T01:17:08;89656.69;;;19.62;69.66
10366;BME280;5229;41.820;23.490;2022-08-21T01:19:38;89642.34;;;19.56;69.85
10366;BME280;5229;41.820;23.490;2022-08-21T01:22:06;89649.84;;;19.54;70.20
10366;BME280;5229;41.820;23.490;2022-08-21T01:24:33;89648.72;;;19.55;70.37
10366;BME280;5229;41.820;23.490;2022-08-21T01:27:01;89647.59;;;19.56;70.44
10366;BME280;5229;41.820;23.490;2022-08-21T01:29:33;89644.25;;;19.59;70.36
10366;BME280;5229;41.820;23.490;2022-08-21T01:32:05;89660.41;;;19.61;70.05
10366;BME280;5229;41.820;23.490;2022-08-21T01:34:34;89651.41;;;19.62;70.05
10366;BME280;5229;41.820;23.490;2022-08-21T01:40:25;89650.25;;;19.56;70.22
10366;BME280;5229;41.820;23.490;2022-08-21T01:42:52;89651.72;;;19.53;70.17
10366;BME280;5229;41.820;23.490;2022-08-21T01:45:19;89639.31;;;19.50;70.23
10366;BME280;5229;41.820;23.490;2022-08-21T01:47:46;89642.28;;;19.49;70.42
10366;BME280;5229;41.820;23.490;2022-08-21T01:50:17;89644.53;;;19.47;70.44
10366;BME280;5229;41.820;23.490;2022-08-21T01:52:44;89648.28;;;19.46;70.40
10366;BME280;5229;41.820;23.490;2022-08-21T01:55:12;89656.56;;;19.48;70.52
10366;BME280;5229;41.820;23.490;2022-08-21T01:57:41;89658.44;;;19.44;70.54
10366;BME280;5229;41.820;23.490;2022-08-21T02:00:11;89652.72;;;19.35;70.83
10366;BME280;5229;41.820;23.490;2022-08-21T02:02:39;89637.63;;;19.28;70.84
10366;BME280;5229;41.820;23.490;2022-08-21T02:05:07;89625.94;;;19.26;70.93
10366;BME280;5229;41.820;23.490;2022-08-21T02:07:39;89642.13;;;19.28;71.23
10366;BME280;5229;41.820;23.490;2022-08-21T02:10:08;89640.28;;;19.28;71.00
10366;BME280;5229;41.820;23.490;2022-08-21T02:12:35;89633.09;;;19.25;70.97
10366;BME280;5229;41.820;23.490;2022-08-21T02:15:05;89642.50;;;19.26;71.03
10366;BME280;5229;41.820;23.490;2022-08-21T02:17:40;89645.53;;;19.28;71.10
10366;BME280;5229;41.820;23.490;2022-08-21T02:20:10;89638.78;;;19.31;70.90
10366;BME280;5229;41.820;23.490;2022-08-21T02:22:37;89638.78;;;19.31;70.96
10366;BME280;5229;41.820;23.490;2022-08-21T02:25:04;89633.53;;;19.31;70.82
10366;BME280;5229;41.820;23.490;2022-08-21T02:27:37;89631.63;;;19.28;70.72
10366;BME280;5229;41.820;23.490;2022-08-21T02:30:08;89628.25;;;19.31;70.93
10366;BME280;5229;41.820;23.490;2022-08-21T02:32:35;89631.66;;;19.35;70.82
10366;BME280;5229;41.820;23.490;2022-08-21T02:38:26;89638.44;;;19.36;70.80
10366;BME280;5229;41.820;23.490;2022-08-21T02:40:54;89630.94;;;19.38;70.50
10366;BME280;5229;41.820;23.490;2022-08-21T02:43:23;89634.69;;;19.37;70.61
10366;BME280;5229;41.820;23.490;2022-08-21T02:45:54;89638.44;;;19.36;70.38
10366;BME280;5229;41.820;23.490;2022-08-21T02:48:23;89635.44;;;19.34;70.54
10366;BME280;5229;41.820;23.490;2022-08-21T02:50:54;89636.19;;;19.38;70.72
10366;BME280;5229;41.820;23.490;2022-08-21T02:53:22;89633.56;;;19.38;70.49
10366;BME280;5229;41.820;23.490;2022-08-21T02:55:50;89629.75;;;19.32;70.61
10366;BME280;5229;41.820;23.490;2022-08-21T02:58:20;89638.00;;;19.30;70.85
10366;BME280;5229;41.820;23.490;2022-08-21T03:00:47;89633.16;;;19.32;71.06
10366;BME280;5229;41.820;23.490;2022-08-21T03:03:16;89639.97;;;19.37;71.02
10366;BME280;5229;41.820;23.490;2022-08-21T03:05:43;89647.50;;;19.42;71.19
10366;BME280;5229;41.820;23.490;2022-08-21T03:08:12;89643.03;;;19.46;71.10
10366;BME280;5229;41.820;23.490;2022-08-21T03:10:42;89640.78;;;19.48;71.10
10366;BME280;5229;41.820;23.490;2022-08-21T03:13:10;89644.94;;;19.49;71.25
10366;BME280;5229;41.820;23.490;2022-08-21T03:15:37;89644.56;;;19.50;70.99
10366;BME280;5229;41.820;23.490;2022-08-21T03:18:05;89653.59;;;19.53;71.03
10366;BME280;5229;41.820;23.490;2022-08-21T03:20:35;89645.31;;;19.51;71.29
10366;BME280;5229;41.820;23.490;2022-08-21T03:23:04;89658.47;;;19.51;71.77
10366;BME280;5229;41.820;23.490;2022-08-21T03:25:31;89659.22;;;19.51;71.38
10366;BME280;5229;41.820;23.490;2022-08-21T03:31:20;89665.59;;;19.50;71.25
10366;BME280;5229;41.820;23.490;2022-08-21T03:33:47;89658.47;;;19.51;71.33
10366;BME280;5229;41.820;23.490;2022-08-21T03:36:15;89664.88;;;19.53;71.33
10366;BME280;5229;41.820;23.490;2022-08-21T03:38:42;89664.53;;;19.55;71.41
10366;BME280;5229;41.820;23.490;2022-08-21T03:41:09;89661.16;;;19.58;71.42
10366;BME280;5229;41.820;23.490;2022-08-21T03:43:35;89667.94;;;19.59;71.54
10366;BME280;5229;41.820;23.490;2022-08-21T03:46:04;89658.53;;;19.61;71.21
10366;BME280;5229;41.820;23.490;2022-08-21T03:48:32;89670.22;;;19.64;71.29
10366;BME280;5229;41.820;23.490;2022-08-21T03:51:00;89678.13;;;19.67;71.30
10366;BME280;5229;41.820;23.490;2022-08-21T03:53:28;89680.78;;;19.71;71.11
10366;BME280;5229;41.820;23.490;2022-08-21T03:55:56;89677.03;;;19.72;71.19
10366;BME280;5229;41.820;23.490;2022-08-21T03:58:25;89670.28;;;19.74;71.40
10366;BME280;5229;41.820;23.490;2022-08-21T04:00:55;89668.41;;;19.75;71.18
10366;BME280;5229;41.820;23.490;2022-08-21T04:03:23;89666.50;;;19.72;71.75
10366;BME280;5229;41.820;23.490;2022-08-21T04:05:50;89670.97;;;19.68;71.56
10366;BME280;5229;41.820;23.490;2022-08-21T04:08:17;89675.88;;;19.66;71.61
10366;BME280;5229;41.820;23.490;2022-08-21T04:10:48;89671.75;;;19.65;71.75
10366;BME280;5229;41.820;23.490;2022-08-21T04:13:16;89684.13;;;19.64;71.83
10366;BME280;5229;41.820;23.490;2022-08-21T04:15:43;89684.13;;;19.64;71.79
10366;BME280;5229;41.820;23.490;2022-08-21T04:18:10;89687.53;;;19.65;71.71
10366;BME280;5229;41.820;23.490;2022-08-21T04:23:58;89679.22;;;19.63;71.81
10366;BME280;5229;41.820;23.490;2022-08-21T04:30:08;89684.44;;;19.56;71.95
10366;BME280;5229;41.820;23.490;2022-08-21T04:32:35;89686.72;;;19.61;71.60
10366;BME280;5229;41.820;23.490;2022-08-21T04:35:04;89687.47;;;19.58;71.89
10366;BME280;5229;41.820;23.490;2022-08-21T04:37:31;89683.31;;;19.57;71.63
10366;BME280;5229;41.820;23.490;2022-08-21T04:39:58;89687.06;;;19.59;71.73
10366;BME280;5229;41.820;23.490;2022-08-21T04:42:25;89685.94;;;19.57;71.84
10366;BME280;5229;41.820;23.490;2022-08-21T04:44:53;89690.84;;;19.58;71.63
10366;BME280;5229;41.820;23.490;2022-08-21T04:47:21;89693.88;;;19.60;71.56
10366;BME280;5229;41.820;23.490;2022-08-21T04:49:49;89698.41;;;19.63;71.61
10366;BME280;5229;41.820;23.490;2022-08-21T04:52:18;89692.38;;;19.63;71.62
10366;BME280;5229;41.820;23.490;2022-08-21T04:54:48;89693.94;;;19.67;71.43
10366;BME280;5229;41.820;23.490;2022-08-21T04:57:16;89689.03;;;19.69;71.21
10366;BME280;5229;41.820;23.490;2022-08-21T04:59:46;89695.44;;;19.72;71.27
10366;BME280;5229;41.820;23.490;2022-08-21T05:02:14;89706.38;;;19.74;71.04
10366;BME280;5229;41.820;23.490;2022-08-21T05:04:45;89707.84;;;19.71;70.91
10366;BME280;5229;41.820;23.490;2022-08-21T05:07:23;89696.19;;;19.69;70.94
10366;BME280;5229;41.820;23.490;2022-08-21T05:09:53;89704.88;;;19.73;71.11
10366;BME280;5229;41.820;23.490;2022-08-21T05:12:21;89709.00;;;19.74;70.90
10366;BME280;5229;41.820;23.490;2022-08-21T05:14:48;89705.94;;;19.68;70.94
10366;BME280;5229;41.820;23.490;2022-08-21T05:17:15;89685.28;;;19.67;71.02
10366;BME280;5229;41.820;23.490;2022-08-21T05:26:26;89681.75;;;19.52;71.10
10366;BME280;5229;41.820;23.490;2022-08-21T05:28:53;89678.41;;;19.55;71.04
10366;BME280;5229;41.820;23.490;2022-08-21T05:31:20;89681.44;;;19.57;71.14
10366;BME280;5229;41.820;23.490;2022-08-21T05:33:47;89673.56;;;19.61;71.03
10366;BME280;5229;41.820;23.490;2022-08-21T05:36:14;89679.22;;;19.63;70.96
10366;BME280;5229;41.820;23.490;2022-08-21T05:38:41;89667.97;;;19.66;71.01
10366;BME280;5229;41.820;23.490;2022-08-21T05:41:09;89676.25;;;19.68;70.78
10366;BME280;5229;41.820;23.490;2022-08-21T05:43:37;89676.66;;;19.70;70.89
10366;BME280;5229;41.820;23.490;2022-08-21T05:46:06;89678.56;;;19.73;70.73
10366;BME280;5229;41.820;23.490;2022-08-21T05:48:34;89678.56;;;19.73;70.88
10366;BME280;5229;41.820;23.490;2022-08-21T05:51:05;89674.38;;;19.72;70.83
10366;BME280;5229;41.820;23.490;2022-08-21T05:53:32;89668.75;;;19.73;71.22
10366;BME280;5229;41.820;23.490;2022-08-21T05:55:59;89681.97;;;19.77;70.92
10366;BME280;5229;41.820;23.490;2022-08-21T05:58:29;89671.47;;;19.84;70.75
10366;BME280;5229;41.820;23.490;2022-08-21T06:00:57;89662.53;;;19.95;70.81
10366;BME280;5229;41.820;23.490;2022-08-21T06:03:28;89659.94;;;20.06;70.87
10366;BME280;5229;41.820;23.490;2022-08-21T06:05:56;89661.53;;;20.14;71.00
10366;BME280;5229;41.820;23.490;2022-08-21T06:08:23;89660.06;;;20.20;71.05
10366;BME280;5229;41.820;23.490;2022-08-21T06:10:55;89660.09;;;20.27;70.98
10366;BME280;5229;41.820;23.490;2022-08-21T06:13:22;89659.00;;;20.32;71.04
10366;BME280;5229;41.820;23.490;2022-08-21T06:18:54;89670.66;;;20.34;71.11
10366;BME280;5229;41.820;23.490;2022-08-21T06:21:21;89674.06;;;20.35;71.39
10366;BME280;5229;41.820;23.490;2022-08-21T06:23:48;89670.66;;;20.34;71.29
10366;BME280;5229;41.820;23.490;2022-08-21T06:26:15;89663.13;;;20.29;71.48
10366;BME280;5229;41.820;23.490;2022-08-21T06:28:42;89667.25;;;20.30;71.38
10366;BME280;5229;41.820;23.490;2022-08-21T06:31:11;89659.00;;;20.32;71.64
10366;BME280;5229;41.820;23.490;2022-08-21T06:33:38;89665.38;;;20.31;71.34
10366;BME280;5229;41.820;23.490;2022-08-21T06:36:06;89660.09;;;20.27;71.61
10366;BME280;5229;41.820;23.490;2022-08-21T06:38:34;89658.59;;;20.26;71.60
10366;BME280;5229;41.820;23.490;2022-08-21T06:41:01;89660.09;;;20.27;71.52
10366;BME280;5229;41.820;23.490;2022-08-21T06:43:28;89656.00;;;20.33;71.55
10366;BME280;5229;41.820;23.490;2022-08-21T06:45:56;89656.75;;;20.37;71.47
10366;BME280;5229;41.820;23.490;2022-08-21T06:48:22;89653.38;;;20.44;71.41
10366;BME280;5229;41.820;23.490;2022-08-21T06:50:49;89649.66;;;20.48;71.45
10366;BME280;5229;41.820;23.490;2022-08-21T06:53:19;89646.63;;;20.53;71.17
10366;BME280;5229;41.820;23.490;2022-08-21T06:55:47;89644.78;;;20.57;71.35
10366;BME280;5229;41.820;23.490;2022-08-21T06:58:15;89646.28;;;20.62;70.93
10366;BME280;5229;41.820;23.490;2022-08-21T07:00:44;89646.69;;;20.67;70.98
10366;BME280;5229;41.820;23.490;2022-08-21T07:03:19;89639.19;;;20.69;70.84
10366;BME280;5229;41.820;23.490;2022-08-21T07:05:46;89648.25;;;20.75;70.74
10366;BME280;5229;41.820;23.490;2022-08-21T07:11:37;89642.59;;;20.77;70.72
10366;BME280;5229;41.820;23.490;2022-08-21T07:14:04;89645.22;;;20.73;70.73
10366;BME280;5229;41.820;23.490;2022-08-21T07:16:31;89645.59;;;20.75;70.85
10366;BME280;5229;41.820;23.490;2022-08-21T07:18:58;89652.75;;;20.82;70.73
10366;BME280;5229;41.820;23.490;2022-08-21T07:21:25;89652.75;;;20.85;70.69
10366;BME280;5229;41.820;23.490;2022-08-21T07:23:52;89661.06;;;20.87;70.39
10366;BME280;5229;41.820;23.490;2022-08-21T07:26:22;89661.06;;;20.87;70.60
10366;BME280;5229;41.820;23.490;2022-08-21T07:28:50;89659.94;;;20.88;70.17
10366;BME280;5229;41.820;23.490;2022-08-21T07:31:19;89653.53;;;20.86;70.26
10366;BME280;5229;41.820;23.490;2022-08-21T07:33:46;89653.91;;;20.91;69.88
10366;BME280;5229;41.820;23.490;2022-08-21T07:36:14;89649.06;;;21.00;70.25
10366;BME280;5229;41.820;23.490;2022-08-21T07:38:41;89644.56;;;21.08;70.27
10366;BME280;5229;41.820;23.490;2022-08-21T07:41:14;89649.84;;;21.18;69.44
10366;BME280;5229;41.820;23.490;2022-08-21T07:43:41;89643.47;;;21.33;69.61
10366;BME280;5229;41.820;23.490;2022-08-21T07:46:09;89650.25;;;21.59;69.29
10366;BME280;5229;41.820;23.490;2022-08-21T07:48:36;89639.31;;;21.85;68.72
10366;BME280;5229;41.820;23.490;2022-08-21T07:51:06;89639.28;;;22.09;67.57
10366;BME280;5229;41.820;23.490;2022-08-21T07:53:34;89633.19;;;22.30;67.01
10366;BME280;5229;41.820;23.490;2022-08-21T07:56:01;89643.72;;;22.33;66.52
10366;BME280;5229;41.820;23.490;2022-08-21T07:58:28;89636.56;;;22.34;66.58
10366;BME280;5229;41.820;23.490;2022-08-21T08:04:18;89638.81;;;22.42;66.17
10366;BME280;5229;41.820;23.490;2022-08-21T08:06:45;89634.66;;;22.41;65.88
10366;BME280;5229;41.820;23.490;2022-08-21T08:09:12;89634.66;;;22.41;66.38
10366;BME280;5229;41.820;23.490;2022-08-21T08:11:41;89632.03;;;22.41;66.08
10366;BME280;5229;41.820;23.490;2022-08-21T08:14:09;89630.50;;;22.40;66.14
10366;BME280;5229;41.820;23.490;2022-08-21T08:16:36;89627.09;;;22.43;66.34
10366;BME280;5229;41.820;23.490;2022-08-21T08:19:02;89627.09;;;22.47;66.23
10366;BME280;5229;41.820;23.490;2022-08-21T08:21:31;89622.19;;;22.52;66.13
10366;BME280;5229;41.820;23.490;2022-08-21T08:23:58;89626.31;;;22.60;65.80
10366;BME280;5229;41.820;23.490;2022-08-21T08:26:26;89626.63;;;22.76;65.67
10366;BME280;5229;41.820;23.490;2022-08-21T08:28:52;89624.50;;;23.23;65.31
10366;BME280;5229;41.820;23.490;2022-08-21T08:31:19;89626.63;;;24.30;63.22
10366;BME280;5229;41.820;23.490;2022-08-21T08:33:46;89631.66;;;24.88;60.93
10366;BME280;5229;41.820;23.490;2022-08-21T08:36:15;89632.25;;;25.29;59.63
10366;BME280;5229;41.820;23.490;2022-08-21T08:42:08;89626.81;;;25.39;58.53
10366;BME280;5229;41.820;23.490;2022-08-21T08:44:36;89631.00;;;25.10;58.80
10366;BME280;5229;41.820;23.490;2022-08-21T08:53:51;89628.69;;;24.49;59.54
10366;BME280;5229;41.820;23.490;2022-08-21T08:56:22;89629.53;;;24.39;59.82
10366;BME280;5229;41.820;23.490;2022-08-21T09:02:16;89616.94;;;24.16;60.25
10366;BME280;5229;41.820;23.490;2022-08-21T09:08:15;89612.16;;;24.01;60.44
10366;BME280;5229;41.820;23.490;2022-08-21T09:10:54;89611.69;;;24.09;60.38
10366;BME280;5229;41.820;23.490;2022-08-21T09:13:30;89608.25;;;24.12;60.20
10366;BME280;5229;41.820;23.490;2022-08-21T09:16:07;89614.75;;;24.08;60.41
10366;BME280;5229;41.820;23.490;2022-08-21T09:18:48;89613.28;;;24.00;60.75
10366;BME280;5229;41.820;23.490;2022-08-21T09:21:25;89605.00;;;23.94;60.19
10366;BME280;5229;41.820;23.490;2022-08-21T09:23:58;89621.72;;;23.88;60.65
10366;BME280;5229;41.820;23.490;2022-08-21T09:26:30;89600.63;;;23.77;60.89
10366;BME280;5229;41.820;23.490;2022-08-21T09:28:59;89610.13;;;23.71;61.04
10366;BME280;5229;41.820;23.490;2022-08-21T09:31:30;89601.81;;;23.69;61.01
10366;BME280;5229;41.820;23.490;2022-08-21T09:34:00;89597.22;;;23.77;61.07
10366;BME280;5229;41.820;23.490;2022-08-21T09:36:35;89593.66;;;23.90;60.84
10366;BME280;5229;41.820;23.490;2022-08-21T09:39:03;89583.97;;;24.51;60.35
10366;BME280;5229;41.820;23.490;2022-08-21T09:41:33;89582.72;;;25.92;57.32
10366;BME280;5229;41.820;23.490;2022-08-21T09:44:01;89598.31;;;26.94;54.78
10366;BME280;5229;41.820;23.490;2022-08-21T09:46:28;89603.44;;;27.40;53.42
10366;BME280;5229;41.820;23.490;2022-08-21T09:48:57;89604.97;;;27.57;52.59
10366;BME280;5229;41.820;23.490;2022-08-21T09:51:28;89604.16;;;27.41;52.52
10366;BME280;5229;41.820;23.490;2022-08-21T09:54:00;89598.69;;;27.12;53.34
10366;BME280;5229;41.820;23.490;2022-08-21T09:56:57;89595.44;;;26.85;53.70
10366;BME280;5229;41.820;23.490;2022-08-21T10:03:18;89601.97;;;26.22;54.77
10366;BME280;5229;41.820;23.490;2022-08-21T10:05:55;89597.78;;;26.02;55.38
10366;BME280;5229;41.820;23.490;2022-08-21T10:08:27;89599.53;;;25.85;55.59
10366;BME280;5229;41.820;23.490;2022-08-21T10:10:56;89592.25;;;25.66;55.77
10366;BME280;5229;41.820;23.490;2022-08-21T10:13:33;89597.91;;;25.45;55.50
10366;BME280;5229;41.820;23.490;2022-08-21T10:16:15;89593.59;;;25.28;55.88
10366;BME280;5229;41.820;23.490;2022-08-21T10:18:55;89594.69;;;25.04;57.11
10366;BME280;5229;41.820;23.490;2022-08-21T10:21:28;89597.63;;;24.83;57.26
10366;BME280;5229;41.820;23.490;2022-08-21T10:24:08;89600.91;;;24.64;57.51
10366;BME280;5229;41.820;23.490;2022-08-21T10:26:48;89604.41;;;24.54;57.83
10366;BME280;5229;41.820;23.490;2022-08-21T10:29:31;89611.41;;;24.37;58.51
10366;BME280;5229;41.820;23.490;2022-08-21T10:32:14;89605.13;;;24.21;59.09
10366;BME280;5229;41.820;23.490;2022-08-21T10:34:50;89607.91;;;24.10;59.05
10366;BME280;5229;41.820;23.490;2022-08-21T10:37:27;89597.03;;;23.98;59.54
10366;BME280;5229;41.820;23.490;2022-08-21T10:40:09;89596.75;;;23.85;59.77
10366;BME280;5229;41.820;23.490;2022-08-21T10:42:49;89597.16;;;23.80;60.50
10366;BME280;5229;41.820;23.490;2022-08-21T10:45:30;89594.56;;;23.77;60.79
10366;BME280;5229;41.820;23.490;2022-08-21T10:48:02;89579.06;;;23.75;61.25
10366;BME280;5229;41.820;23.490;2022-08-21T10:57:24;89591.78;;;23.47;61.74
10366;BME280;5229;41.820;23.490;2022-08-21T10:59:57;89582.00;;;23.40;61.89
10366;BME280;5229;41.820;23.490;2022-08-21T11:02:31;89582.84;;;23.34;62.14
10366;BME280;5229;41.820;23.490;2022-08-21T11:05:01;89570.75;;;23.29;62.47
10366;BME280;5229;41.820;23.490;2022-08-21T11:07:33;89573.03;;;23.31;62.39
10366;BME280;5229;41.820;23.490;2022-08-21T11:10:08;89581.34;;;23.29;62.83
10366;BME280;5229;41.820;23.490;2022-08-21T11:12:42;89568.53;;;23.24;62.98
10366;BME280;5229;41.820;23.490;2022-08-21T11:15:26;89565.16;;;23.17;63.05
10366;BME280;5229;41.820;23.490;2022-08-21T11:18:01;89567.81;;;23.17;63.58
10366;BME280;5229;41.820;23.490;2022-08-21T11:20:32;89562.56;;;23.10;63.97
10366;BME280;5229;41.820;23.490;2022-08-21T11:23:03;89567.13;;;23.06;64.33
10366;BME280;5229;41.820;23.490;2022-08-21T11:25:35;89561.84;;;23.02;64.52
10366;BME280;5229;41.820;23.490;2022-08-21T11:28:09;89562.66;;;22.96;64.81
10366;BME280;5229;41.820;23.490;2022-08-21T11:30:46;89567.22;;;22.92;64.77
10366;BME280;5229;41.820;23.490;2022-08-21T11:33:30;89574.81;;;22.82;65.02
10366;BME280;5229;41.820;23.490;2022-08-21T11:36:02;89581.63;;;22.80;65.24
10366;BME280;5229;41.820;23.490;2022-08-21T11:38:34;89582.44;;;22.73;65.51
10366;BME280;5229;41.820;23.490;2022-08-21T11:41:13;89568.88;;;22.64;65.52
10366;BME280;5229;41.820;23.490;2022-08-21T11:43:47;89568.53;;;22.62;66.01
10366;BME280;5229;41.820;23.490;2022-08-21T11:46:28;89576.47;;;22.59;65.85
10366;BME280;5229;41.820;23.490;2022-08-21T11:52:21;89585.56;;;22.51;66.40
10366;BME280;5229;41.820;23.490;2022-08-21T11:54:56;89585.94;;;22.49;66.39
10366;BME280;5229;41.820;23.490;2022-08-21T11:57:27;89587.44;;;22.50;66.21
10366;BME280;5229;41.820;23.490;2022-08-21T12:00:03;89575.38;;;22.49;66.50
10366;BME280;5229;41.820;23.490;2022-08-21T12:02:42;89581.03;;;22.51;66.77
10366;BME280;5229;41.820;23.490;2022-08-21T12:05:12;89578.38;;;22.51;66.85
10366;BME280;5229;41.820;23.490;2022-08-21T12:08:00;89580.28;;;22.40;66.74
10366;BME280;5229;41.820;23.490;2022-08-21T12:10:33;89577.31;;;22.31;67.00
10366;BME280;5229;41.820;23.490;2022-08-21T12:13:07;89581.88;;;22.27;67.00
10366;BME280;5229;41.820;23.490;2022-08-21T12:15:37;89579.63;;;22.26;66.94
10366;BME280;5229;41.820;23.490;2022-08-21T12:18:04;89579.63;;;22.26;67.07
10366;BME280;5229;41.820;23.490;2022-08-21T12:20:39;89577.69;;;22.26;66.89
10366;BME280;5229;41.820;23.490;2022-08-21T12:23:17;89583.00;;;22.30;66.90
10366;BME280;5229;41.820;23.490;2022-08-21T12:26:01;89585.22;;;22.35;66.77
10366;BME280;5229;41.820;23.490;2022-08-21T12:28:29;89595.38;;;22.43;66.30
10366;BME280;5229;41.820;23.490;2022-08-21T12:30:59;89589.75;;;22.41;66.43
10366;BME280;5229;41.820;23.490;2022-08-21T12:33:29;89590.50;;;22.38;66.22
10366;BME280;5229;41.820;23.490;2022-08-21T12:36:04;89590.88;;;22.33;65.87
10366;BME280;5229;41.820;23.490;2022-08-21T12:38:41;89582.59;;;22.31;65.63
10366;BME280;5229;41.820;23.490;2022-08-21T12:47:28;89603.06;;;22.03;66.02
10366;BME280;5229;41.820;23.490;2022-08-21T12:50:01;89596.28;;;21.98;66.23
10366;BME280;5229;41.820;23.490;2022-08-21T12:52:32;89591.03;;;21.88;65.87
10366;BME280;5229;41.820;23.490;2022-08-21T12:58:23;89590.31;;;21.73;66.56
10366;BME280;5229;41.820;23.490;2022-08-21T13:04:34;89592.56;;;21.50;67.63
10366;BME280;5229;41.820;23.490;2022-08-21T13:07:05;89588.44;;;21.56;67.28
10366;BME280;5229;41.820;23.490;2022-08-21T13:09:41;89587.28;;;21.64;67.49
10366;BME280;5229;41.820;23.490;2022-08-21T13:12:10;89585.00;;;21.70;67.29
10366;BME280;5229;41.820;23.490;2022-08-21T13:14:40;89585.78;;;21.77;67.22
10366;BME280;5229;41.820;23.490;2022-08-21T13:17:09;89585.00;;;21.84;67.28
10366;BME280;5229;41.820;23.490;2022-08-21T13:19:39;89574.44;;;21.87;67.01
10366;BME280;5229;41.820;23.490;2022-08-21T13:22:12;89582.75;;;21.89;67.52
10366;BME280;5229;41.820;23.490;2022-08-21T13:24:40;89585.38;;;21.89;67.37
10366;BME280;5229;41.820;23.490;2022-08-21T13:27:17;89591.06;;;21.84;66.96
10366;BME280;5229;41.820;23.490;2022-08-21T13:29:46;89594.06;;;21.86;67.29
10366;BME280;5229;41.820;23.490;2022-08-21T13:32:25;89594.81;;;21.83;67.63
10366;BME280;5229;41.820;23.490;2022-08-21T13:34:54;89589.91;;;21.85;67.69
10366;BME280;5229;41.820;23.490;2022-08-21T13:37:23;89587.28;;;21.82;67.87
10366;BME280;5229;41.820;23.490;2022-08-21T13:43:17;89586.53;;;21.67;67.63
10366;BME280;5229;41.820;23.490;2022-08-21T13:45:49;89590.69;;;21.54;67.84
10366;BME280;5229;41.820;23.490;2022-08-21T14:03:26;89574.88;;;21.19;68.31
10366;BME280;5229;41.820;23.490;2022-08-21T14:05:53;89577.16;;;21.24;67.74
10366;BME280;5229;41.820;23.490;2022-08-21T14:08:26;89566.97;;;21.30;67.82
10366;BME280;5229;41.820;23.490;2022-08-21T14:10:55;89560.94;;;21.36;67.85
10366;BME280;5229;41.820;23.490;2022-08-21T14:20:10;89557.13;;;21.62;68.14
10366;BME280;5229;41.820;23.490;2022-08-21T14:22:40;89554.88;;;21.74;67.63
10366;BME280;5229;41.820;23.490;2022-08-21T14:25:10;89548.38;;;21.93;67.86
10366;BME280;5229;41.820;23.490;2022-08-21T14:28:02;89554.41;;;22.00;68.05
10366;BME280;5229;41.820;23.490;2022-08-21T14:30:32;89560.06;;;22.09;68.28
10366;BME280;5229;41.820;23.490;2022-08-21T14:33:00;89566.81;;;22.17;68.45
10366;BME280;5229;41.820;23.490;2022-08-21T14:35:29;89567.50;;;22.25;67.98
10366;BME280;5229;41.820;23.490;2022-08-21T14:37:56;89558.44;;;22.29;66.97
10366;BME280;5229;41.820;23.490;2022-08-21T14:40:24;89547.13;;;22.36;67.10
10366;BME280;5229;41.820;23.490;2022-08-21T14:43:10;89548.59;;;22.37;67.04
10366;BME280;5229;41.820;23.490;2022-08-21T14:45:36;89545.56;;;22.45;66.63
10366;BME280;5229;41.820;23.490;2022-08-21T14:48:07;89544.81;;;22.48;66.24
10366;BME280;5229;41.820;23.490;2022-08-21T14:57:11;89540.22;;;22.59;66.23
10366;BME280;5229;41.820;23.490;2022-08-21T14:59:39;89539.44;;;22.62;66.61
10366;BME280;5229;41.820;23.490;2022-08-21T15:02:07;89551.50;;;22.67;66.79
10366;BME280;5229;41.820;23.490;2022-08-21T15:04:34;89544.69;;;22.66;66.61
10366;BME280;5229;41.820;23.490;2022-08-21T15:07:01;89549.63;;;22.64;66.10
10366;BME280;5229;41.820;23.490;2022-08-21T15:09:47;89541.72;;;22.60;66.10
10366;BME280;5229;41.820;23.490;2022-08-21T15:12:15;89530.38;;;22.63;65.63